NCAR-RAP Real-Time Weather Data

Output produced by METARs form (20 January 2018  03:37 UTC)
found at http://weather.rap.ucar.edu/surface/
 
KLXL 200315Z AUTO 30007KT 10SM CLR 02/M03 A2964 RMK AO2
KLXL 200255Z AUTO 30005KT 10SM CLR 02/M03 A2962 RMK AO2
KLXL 200235Z AUTO 30006KT 10SM CLR 02/M04 A2962 RMK AO2
KLXL 200215Z AUTO 29005KT 10SM CLR 02/M04 A2962 RMK AO2
KLXL 200155Z AUTO 29007KT 10SM CLR 02/M04 A2961 RMK AO2
 
KSTC 200253Z 29006KT 10SM CLR 02/M02 A2962 RMK AO2 SLP050 T00171017 53025
KSTC 200153Z 29007KT 10SM CLR 02/M02 A2960 RMK AO2 SLP041 T00221017
 
KCBG 200315Z AUTO 25003KT 10SM CLR 03/M02 A2962 RMK AO2
KCBG 200255Z AUTO 24003KT 10SM CLR 04/M02 A2962 RMK AO2
KCBG 200235Z AUTO 24003KT 10SM CLR 03/M02 A2961 RMK AO2
KCBG 200215Z AUTO 24004KT 10SM CLR 03/M02 A2960 RMK AO2
KCBG 200155Z AUTO 23003KT 10SM CLR 02/M03 A2959 RMK AO2
 
KANE 200335Z AUTO 23003KT 10SM CLR 03/M01 A2964 RMK AO2
KANE 200315Z AUTO 26004KT 10SM CLR 04/00 A2963 RMK AO2
KANE 200245Z 26006KT 10SM BKN250 04/00 A2962
KANE 200145Z 24006KT 10SM BKN250 04/01 A2959
 
KHCD 200315Z AUTO 27008KT 10SM CLR 02/00 A2967 RMK AO2 T00160000
KHCD 200255Z AUTO 27007KT 10SM CLR 03/00 A2967 RMK AO2 T00250000
KHCD 200235Z AUTO 28008KT 10SM CLR 03/00 A2967 RMK AO2 T00270001
KHCD 200215Z AUTO 27010KT 10SM CLR 03/00 A2966 RMK AO2 T00250002
KHCD 200155Z AUTO 27007KT 10SM CLR 02/00 A2964 RMK AO2 T00230001
 
KMSP 200253Z 28005KT 10SM BKN210 04/00 A2964 RMK AO2 SLP045 T00390000 53022
KMSP 200153Z 20003KT 10SM BKN210 03/01 A2960 RMK AO2 SLP031 T00330006
 
KMIC 200253Z AUTO 28006KT 10SM CLR 04/M02 A2963 RMK AO2 SLP041 T00391022 53024 TSNO
KMIC 200153Z 26004KT 10SM CLR 02/M02 A2959 RMK AO2 SLP029 T00221022
 
KSTP 200253Z 30006KT 10SM CLR 02/M01 A2965 RMK AO2 SLP045 T00171006 53020
KSTP 200153Z 00000KT 10SM CLR M01/M02 A2960 RMK AO2 SLP030 T10061017
 
KSGS 200315Z AUTO 30004KT 10SM CLR 04/00 A2964 RMK AO2 T00421001
KSGS 200255Z AUTO 29005KT 10SM CLR 04/00 A2963 RMK AO2 T00440000
KSGS 200235Z AUTO 28005KT 10SM CLR 05/00 A2962 RMK AO2 T00450000
KSGS 200215Z AUTO 26006KT 10SM CLR 05/00 A2960 RMK AO2 T00450000
KSGS 200155Z AUTO 26003KT 10SM CLR 05/00 A2959 RMK AO2 T00450000
 
KPNM 200335Z AUTO 25003KT 10SM CLR 03/M02 A2964 RMK AO2 TSNO
KPNM 200315Z AUTO 25004KT 10SM CLR 03/M02 A2963 RMK AO2 TSNO
KPNM 200255Z AUTO 26003KT 10SM CLR 03/M01 A2962 RMK AO2 TSNO
KPNM 200235Z AUTO 25004KT 10SM CLR 03/M02 A2962 RMK AO2 TSNO
KPNM 200215Z AUTO 00000KT 10SM CLR 02/M02 A2960 RMK AO2 TSNO
KPNM 200155Z AUTO 00000KT 10SM CLR 03/M02 A2959 RMK AO2 TSNO
 
KLVN 200315Z AUTO 27009KT 10SM CLR 03/00 A2965 RMK AO2
KLVN 200255Z AUTO 27007KT 10SM CLR 03/00 A2963 RMK AO2
KLVN 200235Z AUTO 27006KT 10SM CLR 04/01 A2962 RMK AO2
KLVN 200215Z AUTO 27007KT 10SM CLR 04/01 A2961 RMK AO2
KLVN 200156Z AUTO 26006KT 10SM CLR 04/01 A2961 RMK AO2
 
KMGG 200315Z AUTO 10SM CLR 03/00 A2966 RMK AO2 T00261005
KMGG 200255Z AUTO 10SM CLR 03/00 A2965 RMK AO2 T00301003
KMGG 200235Z AUTO 10SM CLR 03/00 A2964 RMK AO2 T00341002
KMGG 200215Z AUTO 10SM CLR 04/00 A2963 RMK AO2 T00370000
KMGG 200155Z AUTO 10SM CLR 04/00 A2962 RMK AO2 T00360000
 
KFCM 200253Z 28005KT 10SM CLR 03/M01 A2963 RMK AO2 SLP044 T00281006 53024
KFCM 200153Z 24006KT 10SM CLR 03/00 A2960 RMK AO2 SLP031 T00330000
 
KCBG 200315Z AUTO 25003KT 10SM CLR 03/M02 A2962 RMK AO2
KCBG 200255Z AUTO 24003KT 10SM CLR 04/M02 A2962 RMK AO2
KCBG 200235Z AUTO 24003KT 10SM CLR 03/M02 A2961 RMK AO2
KCBG 200215Z AUTO 24004KT 10SM CLR 03/M02 A2960 RMK AO2
KCBG 200155Z AUTO 23003KT 10SM CLR 02/M03 A2959 RMK AO2
 
KROS 200315Z AUTO 00000KT 10SM CLR 02/M02 A2962 RMK AO2 T00201020
KROS 200255Z AUTO 25004KT 10SM CLR 02/M02 A2961 RMK AO2 T00191018
KROS 200235Z AUTO 24003KT 10SM CLR 02/M02 A2959 RMK AO2 T00161017
KROS 200215Z AUTO 22003KT 10SM CLR 01/M02 A2958 RMK AO2 T00121018
KROS 200155Z AUTO 23003KT 10SM CLR 01/M02 A2957 RMK AO2 T00081021
 
KRGK 200315Z AUTO 00000KT 10SM CLR M01/M03 A2964 RMK AO2
KRGK 200255Z AUTO 00000KT 10SM CLR M01/M03 A2963 RMK AO2
KRGK 200235Z AUTO 00000KT 10SM CLR M01/M03 A2962 RMK AO2
KRGK 200215Z AUTO 00000KT 10SM CLR M01/M03 A2962 RMK AO2
KRGK 200155Z AUTO 00000KT 10SM CLR M01/M03 A2961 RMK AO2
 
KULM 200315Z AUTO 31009KT 10SM CLR 03/M01 A2968 RMK AO2
KULM 200255Z AUTO 29008KT 10SM CLR 02/M02 A2968 RMK AO2
KULM 200235Z AUTO 30010KT 10SM CLR 03/M01 A2967 RMK AO2
KULM 200215Z AUTO 29010KT 10SM CLR 02/M01 A2966 RMK AO2
KULM 200155Z AUTO 29009KT 10SM CLR 02/M01 A2964 RMK AO2
 
KMKT 200256Z AUTO 30007KT 10SM CLR 04/00 A2967 RMK AO2 SLP059 T00390000 53027
KMKT 200156Z AUTO 30006KT 10SM CLR 04/01 A2964 RMK AO2 SLP049 T00390006
 
KFBL 200315Z AUTO 24003KT 10SM CLR 03/00 A2966 RMK AO2
KFBL 200255Z AUTO 25006KT 10SM CLR 03/00 A2965 RMK AO2
KFBL 200235Z AUTO 25006KT 10SM CLR 03/00 A2965 RMK AO2
KFBL 200215Z AUTO 25004KT 10SM CLR 02/00 A2963 RMK AO2
KFBL 200155Z AUTO 00000KT 10SM CLR 02/00 A2963 RMK AO2
 
KTOB 200315Z AUTO 29009KT 10SM CLR 03/00 A2964 RMK AO2
KTOB 200255Z AUTO 28009KT 10SM CLR 03/00 A2963 RMK AO2
KTOB 200235Z AUTO 27005KT 10SM CLR 01/M01 A2963 RMK AO2
KTOB 200215Z AUTO 26007KT 10SM CLR 01/M01 A2962 RMK AO2
KTOB 200155Z AUTO 25006KT 10SM CLR 01/M01 A2961 RMK AO2
 
KOWA 200333Z AUTO 00000KT 10SM CLR 02/M01 A2966 RMK AO2
KOWA 200316Z AUTO 00000KT 10SM CLR 02/00 A2966 RMK AO2
KOWA 200254Z AUTO 27003KT 10SM CLR 01/00 A2966 RMK AO2
KOWA 200233Z AUTO 00000KT 10SM CLR 01/M01 A2964 RMK AO2
KOWA 200213Z AUTO 26003KT 10SM CLR 02/00 A2963 RMK AO2
KOWA 200154Z AUTO 26004KT 10SM CLR 02/00 A2962 RMK AO2
 
KRST 200254Z 24007KT 10SM CLR 01/M01 A2963 RMK AO2 SLP047 T00061006 51016
KRST 200154Z 24008KT 10SM CLR 02/M01 A2961 RMK AO2 SLP042 T00171006
 
KONA 200335Z AUTO 00000KT 10SM CLR 02/M01 A2964 RMK AO2
KONA 200315Z AUTO 00000KT 10SM CLR 02/00 A2964 RMK AO2
KONA 200255Z AUTO 00000KT 10SM CLR 02/M01 A2963 RMK AO2
KONA 200235Z AUTO 00000KT 10SM CLR 03/00 A2962 RMK AO2
KONA 200215Z AUTO 31004KT 10SM CLR 03/00 A2961 RMK AO2
KONA 200155Z AUTO 00000KT 10SM CLR 03/00 A2961 RMK AO2
 
KFRM 200256Z AUTO 32010KT 10SM CLR 04/00 A2968 RMK AO2 SLP065 T00390000 53023
KFRM 200156Z AUTO 30008KT 10SM CLR 04/00 A2965 RMK AO2 SLP055 T00390000
 
KAEL 200315Z AUTO 27004KT 10SM CLR 03/M01 A2967 RMK AO2
KAEL 200255Z AUTO 27003KT 10SM CLR 03/M01 A2965 RMK AO2
KAEL 200235Z AUTO 26003KT 10SM CLR 03/M01 A2964 RMK AO2
KAEL 200215Z AUTO 28004KT 10SM CLR 03/M01 A2964 RMK AO2
KAEL 200155Z AUTO 26003KT 10SM CLR 03/M01 A2963 RMK AO2
 
KAUM 200305Z AUTO 24003KT 10SM CLR 01/M01 A2966 RMK AO2
KAUM 200227Z AUTO 23003KT 10SM CLR 01/M01 A2963 RMK AO2
KAUM 200145Z AUTO 22006KT 10SM CLR 02/M01 A2962 RMK AO2
 
KLSE 200253Z 00000KT 10SM CLR 03/M02 A2964 RMK AO2 SLP047 T00331017 51017
KLSE 200153Z 22005KT 10SM CLR 04/M01 A2963 RMK AO2 SLP042 T00441011
 
KJMR 200335Z AUTO 00000KT 10SM CLR M01/M03 A2963 RMK AO2
KJMR 200315Z AUTO 00000KT 10SM CLR 00/M03 A2962 RMK AO2
KJMR 200255Z AUTO 00000KT 10SM CLR M01/M03 A2961 RMK AO2
KJMR 200236Z AUTO 00000KT 10SM CLR 00/M02 A2960 RMK AO2
KJMR 200216Z AUTO 00000KT 10SM CLR 00/M03 A2959 RMK AO2
KJMR 200155Z AUTO 00000KT 10SM CLR 00/M03 A2958 RMK AO2